Flight Track Log - Related Links

Times and Time Zones

All times are in EDT time to prevent confusion due to time zone crossing. See the DAL268 flight status page for this flight to view local times or setup timezone preferences in your user account.

Time Position Orientation Groundspeed Altitude Reporting Facility
EDT Latitude Longitude Course Direction KTS MPH feet Rate Location/Type
Fri 14:47:23 37.6244 -122.3690 142° Southeast 163 188 300  Level FlightAware ADS-B
Fri 14:47:26 37.6261 -122.3680 25° Northeast 167 192 400 1,500 Climbing FlightAware ADS-B
Fri 14:47:27 37.6268 -122.3680 360° North 163 188 400 2,000 Level FlightAware ADS-B
Fri 14:47:29 37.6280 -122.3670 33° Northeast 162 186 500 2,571 Climbing FlightAware ADS-B
Fri 14:47:34 37.6316 -122.3640 33° Northeast 162 186 700 2,000 Climbing FlightAware ADS-B
Fri 14:47:35 37.6322 -122.3640 360° North 161 185 700 2,400 Level FlightAware ADS-B
Fri 14:47:39 37.6349 -122.3620 30° Northeast 166 191 900 2,000 Climbing FlightAware ADS-B
Fri 14:47:44 37.6384 -122.3600 24° Northeast 173 199 1,000 1,663 Climbing FlightAware ADS-B
Fri 14:49:02 37.6884 -122.2870 49° Northeast 261 300 3,200 2,169 Climbing FlightAware ADS-B
Fri 14:49:54 37.7450 -122.2520 26° Northeast 269 310 5,700 2,850 Climbing FlightAware ADS-B
Fri 14:50:22 37.7720 -122.2240 39° Northeast 281 323 7,000 2,743 Climbing FlightAware ADS-B
Fri 14:51:04 37.7940 -122.1600 66° East 286 329 8,900 2,265 Climbing FlightAware ADS-B
Fri 14:52:00 37.8170 -122.0690 72° East 323 372 10,700 1,696 Climbing FlightAware ADS-B
Fri 14:52:36 37.8340 -121.9990 73° East 359 413 11,500 1,726 Climbing FlightAware ADS-B
Fri 14:53:13 37.8539 -121.9220 72° East 376 433 12,800 2,206 Climbing FlightAware ADS-B
Fri 14:53:44 37.8700 -121.8560 73° East 376 433 14,000 2,323 Climbing FlightAware ADS-B
Fri 14:54:15 37.8862 -121.7900 73° East 389 448 15,200 2,118 Climbing FlightAware ADS-B
Fri 14:54:52 37.9060 -121.7080 73° East 400 460 16,400 1,765 Climbing FlightAware ADS-B
Fri 14:55:23 37.9229 -121.6380 73° East 413 475 17,200 1,727 Climbing FlightAware ADS-B
Fri 14:55:58 37.9428 -121.5550 73° East 422 486 18,300 1,792 Climbing FlightAware ADS-B
Fri 14:56:40 37.9670 -121.4550 73° East 433 498 19,500 1,703 Climbing FlightAware ADS-B
Fri 14:57:12 37.9860 -121.3770 73° East 438 504 20,400 1,821 Climbing FlightAware ADS-B
Fri 14:57:36 38.0003 -121.3160 73° East 432 497 21,200 1,583 Climbing FlightAware ADS-B
Fri 14:58:24 38.0290 -121.1980 73° East 457 526 22,300 1,463 Climbing FlightAware ADS-B
Fri 14:58:58 38.0570 -121.1110 68° East 459 528 23,200 1,676 Climbing FlightAware ADS-B
Fri 14:59:32 38.0890 -121.0310 63° Northeast 463 533 24,200 1,667 Climbing FlightAware ADS-B
Fri 15:00:10 38.1270 -120.9380 63° Northeast 467 537 25,200 1,459 Climbing FlightAware ADS-B
Fri 15:00:46 38.1590 -120.8470 66° East 477 549 26,000 1,412 Climbing FlightAware ADS-B
Fri 15:01:18 38.1790 -120.7600 74° East 485 558 26,800 1,324 Climbing FlightAware ADS-B
Fri 15:01:54 38.1960 -120.6580 78° East 491 565 27,500 1,250 Climbing FlightAware ADS-B
Fri 15:02:30 38.2140 -120.5570 77° East 497 572 28,300 1,235 Climbing FlightAware ADS-B
Fri 15:03:02 38.2300 -120.4640 78° East 502 578 28,900 1,457 Climbing FlightAware ADS-B
Fri 15:03:40 38.2480 -120.3570 78° East 498 573 30,000 1,543 Climbing FlightAware ADS-B
Fri 15:04:12 38.2640 -120.2650 77° East 499 574 30,700 1,324 Climbing FlightAware ADS-B
Fri 15:04:48 38.2810 -120.1610 78° East 501 577 31,500 1,297 Climbing FlightAware ADS-B
Fri 15:05:26 38.2980 -120.0550 78° East 502 578 32,300 1,217 Climbing FlightAware ADS-B
Fri 15:05:57 38.3130 -119.9660 78° East 503 579 32,900 1,161 Climbing FlightAware ADS-B
Fri 15:06:28 38.3280 -119.8760 78° East 504 580 33,500 1,147 Climbing FlightAware ADS-B
Fri 15:07:05 38.3460 -119.7650 78° East 506 582 34,200 1,120 Climbing FlightAware ADS-B
Fri 15:07:43 38.3640 -119.6540 78° East 504 580 34,900 1,378 Climbing FlightAware ADS-B
Fri 15:08:19 38.3810 -119.5490 78° East 497 572 35,900 1,371 Climbing FlightAware ADS-B
Fri 15:08:53 38.3960 -119.4530 79° East 493 567 36,500 917 Climbing FlightAware ADS-B
Fri 15:09:31 38.4130 -119.3470 78° East 493 567 37,000 429 Climbing FlightAware ADS-B
Fri 15:10:03 38.4280 -119.2540 78° East 495 570 37,000  Level FlightAware ADS-B
Fri 15:10:37 38.4430 -119.1590 79° East 492 566 37,000  Level FlightAware ADS-B
Fri 15:11:20 38.4580 -119.0650 78° East 490 564 37,000  Level FlightAware ADS-B
Fri 15:11:59 38.4800 -118.9250 79° East 490 564 37,000  Level FlightAware ADS-B
Fri 15:12:32 38.4940 -118.8350 79° East 488 562 37,000  Level FlightAware ADS-B
Fri 15:13:13 38.5120 -118.7190 79° East 486 559 37,000  Level FlightAware ADS-B
Fri 15:13:47 38.5270 -118.6240 79° East 485 558 37,000  Level FlightAware ADS-B
Fri 15:14:25 38.5420 -118.5240 79° East 485 558 37,000  Level FlightAware ADS-B
Fri 15:14:57 38.5570 -118.4250 79° East 484 557 37,000  Level FlightAware ADS-B
Fri 15:15:35 38.5740 -118.3200 78° East 483 556 37,000  Level FlightAware ADS-B
Fri 15:16:09 38.5880 -118.2230 80° East 483 556 37,000  Level FlightAware ADS-B
Fri 15:16:45 38.6030 -118.1230 79° East 483 556 37,000  Level FlightAware ADS-B
Fri 15:17:21 38.6180 -118.0240 79° East 483 556 37,000  Level FlightAware ADS-B
Fri 15:17:56 38.6310 -117.9410 79° East 483 556 37,000  Level FlightAware ADS-B
Fri 15:18:32 38.6440 -117.8550 79° East 483 556 37,000  Level FlightAware ADS-B
Fri 15:19:08 38.6570 -117.7690 79° East 483 556 37,000  Level FlightAware ADS-B
Fri 15:19:44 38.6700 -117.6830 79° East 483 556 37,000  Level FlightAware ADS-B
Fri 15:20:20 38.6830 -117.5970 79° East 483 556 37,000  Level FlightAware ADS-B
Fri 15:20:57 38.6960 -117.5090 79° East 483 556 37,000  Level FlightAware ADS-B
Fri 15:21:33 38.7090 -117.4230 79° East 483 556 37,000  Level FlightAware ADS-B
Fri 15:22:09 38.7220 -117.3370 79° East 483 556 37,000  Level FlightAware ADS-B
Fri 15:22:45 38.7350 -117.2510 79° East 483 556 37,000  Level FlightAware ADS-B
Fri 15:23:15 38.7600 -117.0430 81° East 484 557 37,000  Level FlightAware ADS-B
Fri 15:23:58 38.7750 -116.9390 79° East 484 557 37,000  Level FlightAware ADS-B
Fri 15:24:34 38.7880 -116.8530 79° East 484 557 37,000  Level FlightAware ADS-B
Fri 15:25:11 38.8020 -116.7640 79° East 484 557 37,000  Level FlightAware ADS-B
Fri 15:25:45 38.8140 -116.6830 79° East 484 557 37,000  Level FlightAware ADS-B
Fri 15:26:22 38.8280 -116.5940 79° East 484 557 37,000  Level FlightAware ADS-B
Fri 15:26:59 38.8410 -116.5050 79° East 484 557 37,000  Level FlightAware ADS-B
Fri 15:27:35 38.8540 -116.4190 79° East 484 557 37,000  Level FlightAware ADS-B
Fri 15:28:11 38.8670 -116.3320 79° East 484 557 37,000  Level FlightAware ADS-B
Fri 15:28:47 38.8800 -116.2460 79° East 484 557 37,000  Level FlightAware ADS-B
Fri 15:29:23 38.8930 -116.1600 79° East 484 557 37,000  Level FlightAware ADS-B
Fri 15:29:59 38.9060 -116.0730 79° East 484 557 37,000  Level FlightAware ADS-B
Fri 15:30:47 38.9240 -115.9580 79° East 484 557 37,000  Level FlightAware ADS-B
Fri 15:31:23 38.9370 -115.8710 79° East 484 557 37,000  Level FlightAware ADS-B
Fri 15:31:59 38.9500 -115.7850 79° East 484 557 37,000  Level FlightAware ADS-B
Fri 15:32:35 38.9630 -115.6980 79° East 484 557 37,000  Level FlightAware ADS-B
Fri 15:33:11 38.9760 -115.6120 79° East 484 557 37,000  Level FlightAware ADS-B
Fri 15:34:18 39.0056 -115.1814 79° East 486 559 37,000  Level Salt Lake Center
Fri 15:35:20 39.0253 -115.0131 81° East 479 551 37,000  Level Salt Lake Center
Fri 15:36:22 39.0464 -114.8433 81° East 480 552 37,000  Level Salt Lake Center
Fri 15:37:24 39.0664 -114.6744 81° East 479 551 37,000  Level Salt Lake Center
Fri 15:43:10 39.1830 -113.6470 81° East 495 570 37,000  Level FlightAware ADS-B
Fri 15:43:53 39.1950 -113.5390 82° East 496 571 37,000  Level FlightAware ADS-B
Fri 15:44:35 39.2090 -113.4130 82° East 495 570 37,000  Level FlightAware ADS-B
Fri 15:45:11 39.2180 -113.3230 83° East 495 570 37,000  Level FlightAware ADS-B
Fri 15:45:47 39.2280 -113.2340 82° East 495 570 37,000  Level FlightAware ADS-B
Fri 15:46:23 39.2380 -113.1440 82° East 495 570 37,000  Level FlightAware ADS-B
Fri 15:46:59 39.2480 -113.0550 82° East 495 570 37,000  Level FlightAware ADS-B
Fri 15:47:13 39.2576 -112.9460 83° East 488 562 37,000  Level FlightAware ADS-B
Fri 15:47:43 39.2664 -112.8600 82° East 485 558 37,000  Level FlightAware ADS-B
Fri 15:48:13 39.2755 -112.7710 82° East 482 555 37,000  Level FlightAware ADS-B
Fri 15:48:43 39.2760 -112.7960 271° West 495 570 37,000  Level FlightAware ADS-B
Fri 15:49:19 39.2850 -112.7060 83° East 495 570 37,000  Level FlightAware ADS-B
Fri 15:49:33 39.2977 -112.5520 84° East 474 545 37,000  Level FlightAware ADS-B
Fri 15:49:50 39.3009 -112.5260 81° East 472 543 37,000  Level FlightAware ADS-B
Fri 15:50:07 39.3024 -112.5150 80° East 473 544 37,000  Level FlightAware ADS-B
Fri 15:50:22 39.3035 -112.5070 80° East 473 544 37,000  Level FlightAware ADS-B
Fri 15:51:08 39.3150 -112.4340 78° East 495 570 37,000  Level FlightAware ADS-B
Fri 15:51:49 39.3633 -112.1790 76° East 466 536 37,000  Level FlightAware ADS-B
Fri 15:52:20 39.3340 -112.2550 244° Southwest 495 570 37,000  Level FlightAware ADS-B
Fri 15:52:35 39.3817 -112.0800 71° East 465 535 37,000  Level FlightAware ADS-B
Fri 15:53:30 39.4150 -111.9010 76° East 466 536 37,000  Level FlightAware ADS-B
Fri 15:54:06 39.4286 -111.8180 78° East 466 536 37,000  Level FlightAware ADS-B
Fri 15:54:16 39.4304 -111.7800 86° East 465 535 37,000  Level FlightAware ADS-B
Fri 15:54:35 39.4264 -111.7280 96° East 465 535 37,000  Level FlightAware ADS-B
Fri 15:54:50 39.4203 -111.6870 101° East 465 535 37,000  Level FlightAware ADS-B
Fri 15:55:50 39.3920 -111.5200 102° East 465 535 37,000  Level FlightAware ADS-B
Fri 15:56:25 39.3800 -111.4350 100° East 467 537 37,000  Level FlightAware ADS-B
Fri 15:56:52 39.3717 -111.3540 98° East 467 537 37,000  Level FlightAware ADS-B
Fri 15:57:15 39.3661 -111.2910 97° East 467 537 37,000  Level FlightAware ADS-B
Fri 15:57:39 39.3631 -111.2460 95° East 469 540 37,000  Level FlightAware ADS-B
Fri 15:58:20 39.3620 -111.1130 91° East 476 548 37,000  Level FlightAware ADS-B
Fri 15:58:45 39.3760 -111.0440 75° East 482 555 37,000  Level FlightAware ADS-B
Fri 15:59:17 39.4100 -110.9590 63° Northeast 488 562 37,000  Level FlightAware ADS-B
Fri 16:00:00 39.4600 -110.8490 59° Northeast 488 562 37,000  Level FlightAware ADS-B
Fri 16:00:35 39.5040 -110.7620 57° Northeast 488 562 37,000  Level FlightAware ADS-B
Fri 16:01:15 39.5600 -110.6680 52° Northeast 488 562 37,000  Level FlightAware ADS-B
Fri 16:01:53 39.6150 -110.5870 49° Northeast 486 559 37,000  Level FlightAware ADS-B
Fri 16:02:28 39.6710 -110.5110 46° Northeast 483 556 37,000  Level FlightAware ADS-B
Fri 16:03:06 39.7210 -110.4420 47° Northeast 481 554 37,000  Level FlightAware ADS-B
Fri 16:03:37 39.7720 -110.3750 45° Northeast 478 550 37,000  Level FlightAware ADS-B
Fri 16:04:10 39.8200 -110.3100 46° Northeast 477 549 37,000  Level FlightAware ADS-B
Fri 16:04:50 39.8920 -110.2230 43° Northeast 475 547 37,000  Level FlightAware ADS-B
Fri 16:05:25 39.9490 -110.1570 42° Northeast 475 547 37,000  Level FlightAware ADS-B
Fri 16:05:59 39.9990 -110.0990 42° Northeast 475 547 37,000  Level FlightAware ADS-B
Fri 16:06:32 40.0590 -110.0270 43° Northeast 476 548 37,000  Level FlightAware ADS-B
Fri 16:07:09 40.1170 -109.9560 43° Northeast 475 547 37,000  Level FlightAware ADS-B
Fri 16:07:41 40.1650 -109.8920 46° Northeast 476 548 37,000  Level FlightAware ADS-B
Fri 16:08:17 40.2170 -109.8130 49° Northeast 478 550 37,000  Level FlightAware ADS-B
Fri 16:09:02 40.2790 -109.7080 52° Northeast 478 550 37,000  Level FlightAware ADS-B
Fri 16:09:39 40.3260 -109.6270 53° Northeast 478 550 37,000  Level FlightAware ADS-B
Fri 16:10:19 40.3780 -109.5280 55° Northeast 479 551 37,000  Level FlightAware ADS-B
Fri 16:10:52 40.4090 -109.4410 65° Northeast 483 556 37,000  Level FlightAware ADS-B
Fri 16:11:26 40.4330 -109.3460 72° East 478 550 37,000  Level FlightAware ADS-B
Fri 16:12:04 40.4550 -109.2400 75° East 475 547 37,000  Level FlightAware ADS-B
Fri 16:12:38 40.4710 -109.1570 76° East 474 545 37,000  Level FlightAware ADS-B
Fri 16:13:19 40.4940 -109.0320 76° East 473 544 37,000  Level FlightAware ADS-B
Fri 16:13:54 40.5130 -108.9320 76° East 472 543 37,000  Level FlightAware ADS-B
Fri 16:14:27 40.5280 -108.8500 76° East 472 543 37,000  Level FlightAware ADS-B
Fri 16:15:06 40.5480 -108.7450 76° East 474 545 37,000  Level FlightAware ADS-B
Fri 16:15:44 40.5680 -108.6370 76° East 476 548 37,000  Level FlightAware ADS-B
Fri 16:16:20 40.5890 -108.5250 76° East 478 550 37,000  Level FlightAware ADS-B
Fri 16:16:59 40.6090 -108.4160 76° East 479 551 37,000  Level FlightAware ADS-B
Fri 16:17:32 40.6260 -108.3220 77° East 480 552 37,000  Level FlightAware ADS-B
Fri 16:18:07 40.6440 -108.2250 76° East 481 554 37,000  Level FlightAware ADS-B
Fri 16:18:44 40.6630 -108.1180 77° East 480 552 37,000  Level FlightAware ADS-B
Fri 16:19:19 40.6800 -108.0230 77° East 480 552 37,000  Level FlightAware ADS-B
Fri 16:19:58 40.7010 -107.9060 77° East 482 555 37,000  Level FlightAware ADS-B
Fri 16:20:37 40.7200 -107.8000 77° East 484 557 37,000 435 Level FlightAware ADS-B
Fri 16:21:07 40.7360 -107.7080 77° East 484 557 37,500 1,015 Climbing FlightAware ADS-B
Fri 16:21:42 40.7530 -107.6090 77° East 482 555 38,100 960 Climbing FlightAware ADS-B
Fri 16:22:22 40.7720 -107.5020 77° East 478 550 38,700 761 Climbing FlightAware ADS-B
Fri 16:22:53 40.7860 -107.4190 77° East 477 549 39,000 273 Climbing FlightAware ADS-B
Fri 16:23:28 40.8050 -107.3100 77° East 477 549 39,000  Level FlightAware ADS-B
Fri 16:24:18 40.8260 -107.1920 77° East 477 549 39,000  Level FlightAware ADS-B
Fri 16:24:54 40.8410 -107.1050 77° East 477 549 39,000  Level FlightAware ADS-B
Fri 16:25:31 40.8570 -107.0150 77° East 477 549 39,000  Level FlightAware ADS-B
Fri 16:26:07 40.8720 -106.9280 77° East 477 549 39,000  Level FlightAware ADS-B
Fri 16:26:43 40.8870 -106.8410 77° East 477 549 39,000  Level FlightAware ADS-B
Fri 16:27:19 40.9020 -106.7540 77° East 477 549 39,000  Level FlightAware ADS-B
Fri 16:28:01 40.9340 -106.5420 79° East 468 539 39,000  Level FlightAware ADS-B
Fri 16:28:37 40.9510 -106.4390 78° East 469 540 39,000  Level FlightAware ADS-B
Fri 16:29:14 40.9680 -106.3380 77° East 470 541 39,000  Level FlightAware ADS-B
Fri 16:29:50 40.9830 -106.2420 78° East 472 543 39,000  Level FlightAware ADS-B
Fri 16:30:21 40.9990 -106.1490 77° East 474 545 39,000  Level FlightAware ADS-B
Fri 16:30:57 41.0140 -106.0490 79° East 475 547 39,000  Level FlightAware ADS-B
Fri 16:31:35 41.0320 -105.9360 78° East 474 545 39,000  Level FlightAware ADS-B
Fri 16:32:07 41.0470 -105.8440 78° East 474 545 39,000  Level FlightAware ADS-B
Fri 16:32:42 41.0620 -105.7480 78° East 472 543 39,000  Level FlightAware ADS-B
Fri 16:33:17 41.0770 -105.6520 78° East 472 543 39,000  Level FlightAware ADS-B
Fri 16:33:55 41.0950 -105.5390 78° East 473 544 39,000  Level FlightAware ADS-B
Fri 16:34:27 41.1090 -105.4480 78° East 473 544 39,000  Level FlightAware ADS-B
Fri 16:35:02 41.1240 -105.3510 78° East 473 544 39,000  Level FlightAware ADS-B
Fri 16:35:39 41.1400 -105.2480 78° East 473 544 39,000  Level FlightAware ADS-B
Fri 16:36:12 41.1540 -105.1520 79° East 474 545 39,000  Level FlightAware ADS-B
Fri 16:36:47 41.1690 -105.0510 79° East 473 544 39,000  Level FlightAware ADS-B
Fri 16:37:22 41.1840 -104.9540 78° East 474 545 39,000  Level FlightAware ADS-B
Fri 16:37:58 41.1980 -104.8500 80° East 471 542 39,000  Level FlightAware ADS-B
Fri 16:38:37 41.1980 -104.7380 90° East 467 537 39,000  Level FlightAware ADS-B
Fri 16:39:13 41.1900 -104.6350 96° East 467 537 39,000  Level FlightAware ADS-B
Fri 16:39:47 41.1820 -104.5400 96° East 468 539 39,000  Level FlightAware ADS-B
Fri 16:40:25 41.1700 -104.4300 98° East 467 537 39,000  Level FlightAware ADS-B
Fri 16:40:58 41.1610 -104.3380 97° East 468 539 39,000  Level FlightAware ADS-B
Fri 16:41:35 41.1500 -104.2310 98° East 469 540 39,000  Level FlightAware ADS-B
Fri 16:42:10 41.1400 -104.1330 98° East 468 539 39,000  Level FlightAware ADS-B
Fri 16:42:44 41.1310 -104.0370 97° East 469 540 39,000  Level FlightAware ADS-B
Fri 16:43:20 41.1210 -103.9330 97° East 469 540 39,000  Level FlightAware ADS-B
Fri 16:43:54 41.1120 -103.8420 97° East 470 541 39,000  Level FlightAware ADS-B
Fri 16:44:28 41.1020 -103.7410 97° East 470 541 39,000  Level FlightAware ADS-B
Fri 16:45:11 41.0900 -103.6190 97° East 471 542 39,000  Level FlightAware ADS-B
Fri 16:45:55 41.0940 -103.4920 88° East 478 550 39,000  Level FlightAware ADS-B
Fri 16:46:29 41.1200 -103.4010 69° East 479 551 39,000  Level FlightAware ADS-B
Fri 16:47:06 41.1520 -103.2960 68° East 478 550 39,000  Level FlightAware ADS-B
Fri 16:47:47 41.1830 -103.2000 67° East 478 550 39,000  Level FlightAware ADS-B
Fri 16:48:18 41.2120 -103.1030 68° East 478 550 39,000  Level FlightAware ADS-B
Fri 16:48:56 41.2450 -102.9970 67° East 479 551 39,000  Level FlightAware ADS-B
Fri 16:49:31 41.2730 -102.9080 67° East 480 552 39,000  Level FlightAware ADS-B
Fri 16:50:04 41.3010 -102.8160 68° East 481 554 39,000  Level FlightAware ADS-B
Fri 16:50:41 41.3280 -102.7300 67° East 481 554 39,000  Level FlightAware ADS-B
Fri 16:51:17 41.3550 -102.6460 67° East 481 554 39,000  Level FlightAware ADS-B
Fri 16:51:53 41.3820 -102.5630 67° East 481 554 39,000  Level FlightAware ADS-B
Fri 16:52:29 41.4080 -102.4790 68° East 481 554 39,000  Level FlightAware ADS-B
Fri 16:53:06 41.4360 -102.3930 67° East 481 554 39,000  Level FlightAware ADS-B
Fri 16:53:53 41.4700 -102.2840 67° East 481 554 39,000  Level FlightAware ADS-B
Fri 16:54:29 41.4970 -102.2000 67° East 481 554 39,000  Level FlightAware ADS-B
Fri 16:55:06 41.5240 -102.1140 67° East 481 554 39,000  Level FlightAware ADS-B
Fri 16:55:42 41.5510 -102.0310 66° East 481 554 39,000  Level FlightAware ADS-B
Fri 16:56:18 41.6070 -101.8000 72° East 470 541 39,000  Level FlightAware ADS-B
Fri 16:56:55 41.6330 -101.7120 68° East 471 542 39,000  Level FlightAware ADS-B
Fri 16:57:32 41.6590 -101.6270 68° East 471 542 39,000  Level FlightAware ADS-B
Fri 16:58:08 41.6840 -101.5440 68° East 471 542 39,000  Level FlightAware ADS-B
Fri 16:58:44 41.7090 -101.4610 68° East 471 542 39,000  Level FlightAware ADS-B
Fri 16:59:20 41.7340 -101.3780 68° East 471 542 39,000  Level FlightAware ADS-B
Fri 16:59:57 41.7590 -101.2930 68° East 471 542 39,000  Level FlightAware ADS-B
Fri 17:00:33 41.7840 -101.2100 68° East 471 542 39,000  Level FlightAware ADS-B
Fri 17:01:20 41.8170 -101.1020 68° East 471 542 39,000  Level FlightAware ADS-B
Fri 17:01:57 41.8430 -101.0170 68° East 471 542 39,000  Level FlightAware ADS-B
Fri 17:02:33 41.8680 -100.9330 68° East 471 542 39,000  Level FlightAware ADS-B
Fri 17:03:09 41.8930 -100.8500 68° East 471 542 39,000  Level FlightAware ADS-B
Fri 17:03:45 41.9170 -100.7670 69° East 471 542 39,000  Level FlightAware ADS-B
Fri 17:04:22 41.9430 -100.6820 68° East 471 542 39,000  Level FlightAware ADS-B
Fri 17:04:58 41.9680 -100.5990 68° East 471 542 39,000  Level FlightAware ADS-B
Fri 17:05:34 41.9930 -100.5160 68° East 471 542 39,000  Level FlightAware ADS-B
Fri 17:06:10 42.0180 -100.4320 68° East 471 542 39,000  Level FlightAware ADS-B
Fri 17:07:34 42.1250 -99.9788 72° East 463 533 39,000  Level FlightAware ADS-B
Fri 17:08:04 42.1480 -99.8949 70° East 463 533 39,000  Level FlightAware ADS-B
Fri 17:08:35 42.1710 -99.8109 70° East 465 535 39,000  Level FlightAware ADS-B
Fri 17:09:44 42.2213 -99.6255 70° East 466 536 39,000  Level FlightAware ADS-B
Fri 17:10:16 42.2457 -99.5350 70° East 466 536 39,000  Level FlightAware ADS-B
Fri 17:11:58 42.3128 -99.2849 70° East 467 537 39,000  Level FlightAware ADS-B
Fri 17:12:28 42.3421 -99.1751 70° East 466 536 39,000  Level FlightAware ADS-B
Fri 17:14:05 42.4106 -98.9156 70° East 466 536 39,000  Level FlightAware ADS-B
Fri 17:14:37 42.4353 -98.8217 70° East 466 536 39,000  Level FlightAware ADS-B
Fri 17:16:14 42.4785 -98.5434 78° East 478 550 39,000  Level FlightAware ADS-B
Fri 17:16:44 42.4828 -98.4539 86° East 480 552 39,000  Level FlightAware ADS-B
Fri 17:17:15 42.4868 -98.3628 87° East 481 554 39,000  Level FlightAware ADS-B
Fri 17:18:26 42.4966 -98.1494 86° East 482 555 39,000  Level FlightAware ADS-B
Fri 17:18:56 42.5009 -98.0574 86° East 482 555 39,000  Level FlightAware ADS-B
Fri 17:19:27 42.5051 -97.9656 86° East 484 557 39,000  Level FlightAware ADS-B
Fri 17:20:36 42.5143 -97.7583 86° East 487 560 39,000  Level FlightAware ADS-B
Fri 17:21:07 42.5184 -97.6635 87° East 488 562 39,000  Level FlightAware ADS-B
Fri 17:21:37 42.5223 -97.5701 87° East 488 562 39,000  Level FlightAware ADS-B
Fri 17:22:30 42.5290 -97.4160 87° East 487 560 39,000  Level FlightAware ADS-B
Fri 17:22:47 42.5309 -97.3580 87° East 487 560 39,000  Level FlightAware ADS-B
Fri 17:23:19 42.5347 -97.2604 87° East 487 560 39,000  Level FlightAware ADS-B
Fri 17:23:49 42.5382 -97.1685 87° East 486 559 39,000  Level FlightAware ADS-B
Fri 17:24:51 42.5450 -96.9830 87° East 482 555 39,000  Level FlightAware ADS-B
Fri 17:24:59 42.5460 -96.9598 87° East 483 556 39,000  Level FlightAware ADS-B
Fri 17:25:30 42.5494 -96.8654 87° East 482 555 39,000  Level FlightAware ADS-B
Fri 17:26:00 42.5525 -96.7743 87° East 481 554 39,000  Level FlightAware ADS-B
Fri 17:26:33 42.5560 -96.6820 87° East 479 551 39,000  Level FlightAware ADS-B
Fri 17:27:09 42.5595 -96.5681 88° East 479 551 39,000  Level FlightAware ADS-B
Fri 17:27:39 42.5624 -96.4769 87° East 480 552 39,000  Level FlightAware ADS-B
Fri 17:28:10 42.5652 -96.3858 88° East 480 552 39,000  Level FlightAware ADS-B
Fri 17:28:56 42.5690 -96.2480 88° East 480 552 39,000  Level FlightAware ADS-B
Fri 17:29:19 42.5716 -96.1766 87° East 481 554 39,000  Level FlightAware ADS-B
Fri 17:29:50 42.5743 -96.0837 88° East 481 554 39,000  Level FlightAware ADS-B
Fri 17:30:20 42.5768 -95.9934 88° East 481 554 39,000  Level FlightAware ADS-B
Fri 17:31:15 42.5810 -95.8300 88° East 481 554 39,000  Level FlightAware ADS-B
Fri 17:31:30 42.5823 -95.7867 88° East 482 555 39,000  Level FlightAware ADS-B
Fri 17:32:01 42.5847 -95.6917 88° East 483 556 39,000  Level FlightAware ADS-B
Fri 17:32:31 42.5870 -95.5984 88° East 483 556 39,000  Level FlightAware ADS-B
Fri 17:33:02 42.5890 -95.5060 88° East 484 557 39,000  Level FlightAware ADS-B
Fri 17:33:42 42.5920 -95.3840 88° East 484 557 39,000  Level FlightAware ADS-B
Fri 17:34:12 42.5940 -95.2925 88° East 485 558 39,000  Level FlightAware ADS-B
Fri 17:34:43 42.5959 -95.1997 88° East 485 558 39,000  Level FlightAware ADS-B
Fri 17:35:20 42.5980 -95.0900 88° East 485 558 39,000  Level FlightAware ADS-B
Fri 17:35:53 42.6001 -94.9882 88° East 485 558 39,000  Level FlightAware ADS-B
Fri 17:36:23 42.6018 -94.8957 89° East 485 558 39,000  Level FlightAware ADS-B
Fri 17:36:54 42.6035 -94.8016 89° East 483 556 39,000  Level FlightAware ADS-B
Fri 17:37:42 42.6060 -94.6590 89° East 481 554 39,000  Level FlightAware ADS-B
Fri 17:38:04 42.6069 -94.5928 89° East 481 554 39,000  Level FlightAware ADS-B
Fri 17:38:35 42.6083 -94.4999 89° East 480 552 39,000  Level FlightAware ADS-B
Fri 17:39:05 42.6096 -94.4073 89° East 480 552 39,000  Level FlightAware ADS-B
Fri 17:39:57 42.6120 -94.2540 89° East 480 552 39,000  Level FlightAware ADS-B
Fri 17:40:14 42.6121 -94.2041 90° East 480 552 39,000  Level FlightAware ADS-B
Fri 17:40:44 42.6129 -94.1104 89° East 480 552 39,000  Level FlightAware ADS-B
Fri 17:41:41 42.6140 -93.9420 89° East 479 551 39,000  Level FlightAware ADS-B
Fri 17:42:15 42.6150 -93.8390 89° East 479 551 39,000  Level FlightAware ADS-B
Fri 17:42:24 42.6149 -93.8116 90° East 478 550 39,000  Level FlightAware ADS-B
Fri 17:42:55 42.6154 -93.7177 90° East 477 549 39,000  Level FlightAware ADS-B
Fri 17:43:26 42.6160 -93.6250 89° East 476 548 39,000  Level FlightAware ADS-B
Fri 17:43:59 42.6160 -93.5270 90° East 475 547 39,000  Level FlightAware ADS-B
Fri 17:44:34 42.6160 -93.4240 90° East 473 544 39,000  Level FlightAware ADS-B
Fri 17:45:09 42.6170 -93.3230 89° East 471 542 39,000  Level FlightAware ADS-B
Fri 17:45:45 42.6200 -93.2150 88° East 468 539 39,000  Level FlightAware ADS-B
Fri 17:46:20 42.6220 -93.1130 88° East 467 537 39,000  Level FlightAware ADS-B
Fri 17:46:57 42.6250 -93.0040 88° East 466 536 39,000  Level FlightAware ADS-B
Fri 17:47:29 42.6270 -92.9120 88° East 466 536 39,000  Level FlightAware ADS-B
Fri 17:48:04 42.6290 -92.8110 88° East 466 536 39,000  Level FlightAware ADS-B
Fri 17:48:41 42.6310 -92.7020 89° East 466 536 39,000  Level FlightAware ADS-B
Fri 17:49:14 42.6320 -92.6070 89° East 465 535 39,000  Level FlightAware ADS-B
Fri 17:49:50 42.6340 -92.5000 89° East 465 535 39,000  Level FlightAware ADS-B
Fri 17:50:27 42.6360 -92.3950 88° East 466 536 39,000  Level FlightAware ADS-B
Fri 17:51:00 42.6370 -92.2980 89° East 467 537 39,000  Level FlightAware ADS-B
Fri 17:51:36 42.6390 -92.1920 88° East 468 539 39,000  Level FlightAware ADS-B
Fri 17:52:12 42.6400 -92.0880 89° East 469 540 39,000  Level FlightAware ADS-B
Fri 17:52:44 42.6420 -91.9920 88° East 471 542 39,000  Level FlightAware ADS-B
Fri 17:53:19 42.6430 -91.8900 89° East 472 543 39,000  Level FlightAware ADS-B
Fri 17:53:55 42.6440 -91.7820 89° East 473 544 39,000  Level FlightAware ADS-B
Fri 17:54:31 42.6450 -91.6780 89° East 474 545 39,000  Level FlightAware ADS-B
Fri 17:55:03 42.6460 -91.5800 89° East 475 547 39,000  Level FlightAware ADS-B
Fri 17:55:41 42.6470 -91.4690 89° East 475 547 39,000  Level FlightAware ADS-B
Fri 17:56:17 42.6480 -91.3590 89° East 476 548 39,000  Level FlightAware ADS-B
Fri 17:56:49 42.6480 -91.2660 90° East 475 547 39,000  Level FlightAware ADS-B
Fri 17:57:25 42.6490 -91.1580 89° East 474 545 39,000  Level FlightAware ADS-B
Fri 17:58:01 42.6490 -91.0500 90° East 474 545 39,000  Level FlightAware ADS-B
Fri 17:58:32 42.6500 -90.9610 89° East 474 545 39,000  Level FlightAware ADS-B
Fri 17:59:05 42.6500 -90.8620 90° East 474 545 39,000  Level FlightAware ADS-B
Fri 17:59:45 42.6500 -90.7430 90° East 474 545 39,000  Level FlightAware ADS-B
Fri 18:00:21 42.6500 -90.6410 90° East 474 545 39,000  Level FlightAware ADS-B
Fri 18:00:56 42.6500 -90.5310 90° East 473 544 39,000  Level FlightAware ADS-B
Fri 18:01:31 42.6500 -90.4300 90° East 473 544 39,000  Level FlightAware ADS-B
Fri 18:02:04 42.6500 -90.3320 90° East 473 544 39,000  Level FlightAware ADS-B
Fri 18:02:37 42.6500 -90.2340 90° East 473 544 39,000  Level FlightAware ADS-B
Fri 18:03:16 42.6490 -90.1180 91° East 473 544 39,000  Level FlightAware ADS-B
Fri 18:03:50 42.6490 -90.0170 90° East 473 544 39,000  Level FlightAware ADS-B
Fri 18:04:22 42.6480 -89.9210 91° East 473 544 39,000  Level FlightAware ADS-B
Fri 18:04:59 42.6480 -89.8130 90° East 472 543 39,000  Level FlightAware ADS-B
Fri 18:05:36 42.6470 -89.7040 91° East 472 543 39,000  Level FlightAware ADS-B
Fri 18:06:12 42.6460 -89.6020 91° East 472 543 39,000  Level FlightAware ADS-B
Fri 18:06:43 42.6450 -89.5050 91° East 472 543 39,000  Level FlightAware ADS-B
Fri 18:07:20 42.6440 -89.3950 91° East 472 543 39,000  Level FlightAware ADS-B
Fri 18:07:56 42.6430 -89.2890 91° East 472 543 39,000  Level FlightAware ADS-B
Fri 18:08:30 42.6420 -89.1930 91° East 473 544 39,000  Level FlightAware ADS-B
Fri 18:09:04 42.6410 -89.0890 91° East 474 545 39,000  Level FlightAware ADS-B
Fri 18:09:39 42.6390 -88.9880 92° East 475 547 39,000  Level FlightAware ADS-B
Fri 18:10:16 42.6380 -88.8750 91° East 476 548 39,000  Level FlightAware ADS-B
Fri 18:10:52 42.6360 -88.7680 91° East 478 550 39,000  Level FlightAware ADS-B
Fri 18:11:29 42.6340 -88.6590 91° East 479 551 39,000  Level FlightAware ADS-B
Fri 18:11:59 42.6330 -88.5660 91° East 480 552 39,000  Level FlightAware ADS-B
Fri 18:12:36 42.6310 -88.4540 91° East 481 554 39,000  Level FlightAware ADS-B
Fri 18:13:12 42.6290 -88.3490 91° East 482 555 39,000  Level FlightAware ADS-B
Fri 18:13:48 42.6260 -88.2440 92° East 482 555 39,000  Level FlightAware ADS-B
Fri 18:14:23 42.6240 -88.1320 91° East 483 556 39,000  Level FlightAware ADS-B
Fri 18:14:59 42.6220 -88.0230 91° East 484 557 39,000  Level FlightAware ADS-B
Fri 18:15:28 42.6250 -87.9410 87° East 473 544 39,000  Level FlightAware ADS-B
Fri 18:15:46 42.6360 -87.8900 74° East 458 527 39,000  Level FlightAware ADS-B
Fri 18:16:07 42.6580 -87.8360 61° Northeast 441 507 39,000  Level FlightAware ADS-B
Fri 18:16:40 42.6970 -87.7700 51° Northeast 434 499 39,000  Level FlightAware ADS-B
Fri 18:17:17 42.7470 -87.6920 49° Northeast 433 498 39,000  Level FlightAware ADS-B
Fri 18:17:50 42.7860 -87.6220 53° Northeast 440 506 39,000  Level FlightAware ADS-B
Fri 18:18:08 42.8010 -87.5720 68° East 448 516 39,000  Level FlightAware ADS-B
Fri 18:18:27 42.8080 -87.5210 79° East 455 524 39,000  Level FlightAware ADS-B
Fri 18:18:58 42.8040 -87.4290 93° East 462 532 39,000  Level FlightAware ADS-B
Fri 18:19:36 42.7970 -87.3210 95° East 461 531 39,000  Level FlightAware ADS-B
Fri 18:20:14 42.7890 -87.2120 96° East 462 532 39,000  Level FlightAware ADS-B
Fri 18:20:46 42.7830 -87.1210 95° East 463 533 39,000  Level FlightAware ADS-B
Fri 18:21:20 42.7750 -87.0200 96° East 464 534 39,000  Level FlightAware ADS-B
Fri 18:21:56 42.7680 -86.9200 95° East 464 534 39,000  Level FlightAware ADS-B
Fri 18:22:30 42.7610 -86.8200 95° East 464 534 39,000  Level FlightAware ADS-B
Fri 18:23:04 42.7530 -86.7200 96° East 465 535 39,000  Level FlightAware ADS-B
Fri 18:23:40 42.7460 -86.6220 96° East 465 535 39,000  Level FlightAware ADS-B
Fri 18:24:18 42.7370 -86.5050 96° East 465 535 39,000  Level FlightAware ADS-B
Fri 18:24:58 42.7280 -86.3910 96° East 465 535 39,000  Level FlightAware ADS-B
Fri 18:25:33 42.7200 -86.2840 96° East 466 536 39,000  Level FlightAware ADS-B
Fri 18:26:10 42.7120 -86.1830 96° East 466 536 39,000  Level FlightAware ADS-B
Fri 18:26:43 42.7030 -86.0820 97° East 466 536 39,000  Level FlightAware ADS-B
Fri 18:27:19 42.6950 -85.9770 96° East 466 536 39,000  Level FlightAware ADS-B
Fri 18:28:03 42.6840 -85.8500 97° East 467 537 39,000  Level FlightAware ADS-B
Fri 18:28:35 42.6760 -85.7530 96° East 468 539 39,000  Level FlightAware ADS-B
Fri 18:29:10 42.6680 -85.6550 96° East 469 540 39,000  Level FlightAware ADS-B
Fri 18:29:47 42.6590 -85.5440 96° East 470 541 39,000  Level FlightAware ADS-B
Fri 18:30:21 42.6500 -85.4430 97° East 471 542 39,000  Level FlightAware ADS-B
Fri 18:30:54 42.6420 -85.3480 96° East 472 543 39,000  Level FlightAware ADS-B
Fri 18:31:30 42.6320 -85.2430 97° East 474 545 39,000  Level FlightAware ADS-B
Fri 18:32:05 42.6230 -85.1390 97° East 475 547 39,000  Level FlightAware ADS-B
Fri 18:32:38 42.6140 -85.0400 97° East 476 548 39,000  Level FlightAware ADS-B
Fri 18:33:13 42.6050 -84.9380 97° East 478 550 39,000  Level FlightAware ADS-B
Fri 18:33:50 42.5950 -84.8280 97° East 478 550 39,000  Level FlightAware ADS-B
Fri 18:34:26 42.5850 -84.7190 97° East 479 551 39,000  Level FlightAware ADS-B
Fri 18:34:58 42.5770 -84.6290 97° East 479 551 39,000  Level FlightAware ADS-B
Fri 18:35:36 42.5660 -84.5160 97° East 478 550 39,000  Level FlightAware ADS-B
Fri 18:36:11 42.5560 -84.4100 97° East 478 550 39,000  Level FlightAware ADS-B
Fri 18:36:47 42.5460 -84.3090 98° East 479 551 39,000  Level FlightAware ADS-B
Fri 18:37:20 42.5360 -84.2050 97° East 479 551 39,000  Level FlightAware ADS-B
Fri 18:37:56 42.5270 -84.0970 96° East 475 547 39,000  Level FlightAware ADS-B
Fri 18:38:31 42.5200 -83.9960 95° East 477 549 39,000  Level FlightAware ADS-B
Fri 18:39:08 42.5110 -83.8830 96° East 482 555 39,000  Level FlightAware ADS-B
Fri 18:39:44 42.5030 -83.7810 96° East 485 558 39,000  Level FlightAware ADS-B
Fri 18:40:24 42.4930 -83.6550 96° East 488 562 39,000  Level FlightAware ADS-B
Fri 18:41:00 42.4840 -83.5460 96° East 490 564 39,000  Level FlightAware ADS-B
Fri 18:41:32 42.4750 -83.4460 97° East 491 565 39,000  Level FlightAware ADS-B
Fri 18:42:08 42.4660 -83.3360 96° East 492 566 39,000  Level FlightAware ADS-B
Fri 18:42:44 42.4570 -83.2280 96° East 493 567 39,000  Level FlightAware ADS-B
Fri 18:43:16 42.4480 -83.1290 97° East 492 566 39,000  Level FlightAware ADS-B
Fri 18:43:54 42.4380 -83.0110 97° East 491 565 39,000  Level FlightAware ADS-B
Fri 18:44:30 42.4290 -82.9070 97° East 490 564 39,000  Level FlightAware ADS-B
Fri 18:45:06 42.4190 -82.7950 97° East 489 563 39,000  Level FlightAware ADS-B
Fri 18:45:40 42.4100 -82.6940 97° East 487 560 39,000  Level FlightAware ADS-B
Fri 18:46:12 42.4010 -82.5980 97° East 485 558 39,000  Level FlightAware ADS-B
Fri 18:46:46 42.3910 -82.4930 97° East 482 555 39,000  Level FlightAware ADS-B
Fri 18:47:24 42.3810 -82.3810 97° East 479 551 39,000  Level FlightAware ADS-B
Fri 18:47:58 42.3710 -82.2790 98° East 476 548 39,000  Level FlightAware ADS-B
Fri 18:48:34 42.3610 -82.1750 97° East 475 547 39,000  Level FlightAware ADS-B
Fri 18:49:06 42.3530 -82.0880 97° East 475 547 39,000  Level FlightAware ADS-B
Fri 18:49:43 42.3430 -81.9790 97° East 474 545 39,000  Level FlightAware ADS-B
Fri 18:50:18 42.3330 -81.8760 97° East 474 545 39,000  Level FlightAware ADS-B
Fri 18:50:51 42.3240 -81.7930 98° East 474 545 39,000  Level FlightAware ADS-B
Fri 18:51:23 42.3140 -81.6890 97° East 475 547 39,000  Level FlightAware ADS-B
Fri 18:52:12 42.3000 -81.5530 98° East 476 548 39,000  Level FlightAware ADS-B
Fri 18:52:47 42.2890 -81.4360 97° East 477 549 39,000  Level FlightAware ADS-B
Fri 18:53:37 42.2730 -81.2890 98° East 479 551 39,000  Level FlightAware ADS-B
Fri 18:54:07 42.2640 -81.2030 98° East 479 551 39,000  Level FlightAware ADS-B
Fri 18:54:42 42.2530 -81.0980 98° East 480 552 39,000  Level FlightAware ADS-B
Fri 18:55:17 42.2430 -80.9970 98° East 480 552 39,000  Level FlightAware ADS-B
Fri 18:55:53 42.2310 -80.8900 99° East 481 554 39,000  Level FlightAware ADS-B
Fri 18:56:27 42.2200 -80.7870 98° East 482 555 39,000  Level FlightAware ADS-B
Fri 18:57:07 42.2080 -80.6770 98° East 482 555 39,000  Level FlightAware ADS-B
Fri 18:57:37 42.1980 -80.5790 98° East 483 556 39,000  Level FlightAware ADS-B
Fri 18:58:12 42.1860 -80.4760 99° East 483 556 39,000  Level FlightAware ADS-B
Fri 18:58:47 42.1750 -80.3730 98° East 483 556 39,000  Level FlightAware ADS-B
Fri 18:59:27 42.1610 -80.2510 99° East 482 555 39,000  Level FlightAware ADS-B
Fri 18:59:57 42.1510 -80.1650 99° East 482 555 39,000  Level FlightAware ADS-B
Fri 19:00:32 42.1410 -80.0700 98° East 483 556 39,000  Level FlightAware ADS-B
Fri 19:01:07 42.1270 -79.9540 99° East 483 556 39,000  Level FlightAware ADS-B
Fri 19:01:48 42.1150 -79.8440 98° East 484 557 39,000  Level FlightAware ADS-B
Fri 19:02:24 42.1020 -79.7390 99° East 485 558 39,000  Level FlightAware ADS-B
Fri 19:03:02 42.0870 -79.6120 99° East 485 558 39,000  Level FlightAware ADS-B
Fri 19:03:37 42.0760 -79.5110 98° East 485 558 39,000  Level FlightAware ADS-B
Fri 19:04:17 42.0620 -79.3950 99° East 485 558 39,000  Level FlightAware ADS-B
Fri 19:04:57 42.0480 -79.2810 99° East 485 558 39,000  Level FlightAware ADS-B
Fri 19:05:37 42.0320 -79.1520 99° East 485 558 39,000  Level FlightAware ADS-B
Fri 19:06:12 42.0200 -79.0510 99° East 485 558 39,000  Level FlightAware ADS-B
Fri 19:06:42 42.0090 -78.9620 99° East 486 559 39,000  Level FlightAware ADS-B
Fri 19:07:17 41.9960 -78.8610 100° East 486 559 39,000  Level FlightAware ADS-B
Fri 19:07:57 41.9800 -78.7370 100° East 486 559 39,000  Level FlightAware ADS-B
Fri 19:08:32 41.9670 -78.6350 100° East 487 560 39,000  Level FlightAware ADS-B
Fri 19:09:07 41.9540 -78.5330 100° East 486 559 39,000  Level FlightAware ADS-B
Fri 19:09:42 41.9400 -78.4250 100° East 482 555 39,000  Level FlightAware ADS-B
Fri 19:10:12 41.9300 -78.3440 99° East 474 545 39,000  Level FlightAware ADS-B
Fri 19:10:48 41.9160 -78.2370 100° East 467 537 39,000  Level FlightAware ADS-B
Fri 19:11:22 41.9030 -78.1340 100° East 464 534 39,000  Level FlightAware ADS-B
Fri 19:12:00 41.8880 -78.0260 101° East 464 534 39,000  Level FlightAware ADS-B
Fri 19:12:36 41.8750 -77.9260 100° East 465 535 39,000  Level FlightAware ADS-B
Fri 19:13:10 41.8580 -77.8290 103° East 464 534 39,000  Level FlightAware ADS-B
Fri 19:13:46 41.8340 -77.7340 109° East 463 533 39,000  Level FlightAware ADS-B
Fri 19:14:22 41.8080 -77.6340 109° East 463 533 39,000  Level FlightAware ADS-B
Fri 19:14:58 41.7810 -77.5350 110° East 464 534 39,000  Level FlightAware ADS-B
Fri 19:15:30 41.7590 -77.4500 109° East 465 535 39,000  Level FlightAware ADS-B
Fri 19:16:04 41.7340 -77.3580 110° East 466 536 39,000  Level FlightAware ADS-B
Fri 19:16:42 41.7060 -77.2530 110° East 466 536 39,000 -429 Level FlightAware ADS-B
Fri 19:17:14 41.6830 -77.1670 110° East 468 539 38,500 -738 Descending FlightAware ADS-B
Fri 19:17:47 41.6610 -77.0840 110° East 461 531 38,200 -706 Descending FlightAware ADS-B
Fri 19:18:22 41.6350 -76.9900 110° East 455 524 37,700 -1,457 Descending FlightAware ADS-B
Fri 19:18:57 41.6100 -76.8980 110° East 460 529 36,500 -1,920 Descending FlightAware ADS-B
Fri 19:19:37 41.5820 -76.7940 110° East 465 535 35,300 -1,714 Descending FlightAware ADS-B
Fri 19:20:07 41.5590 -76.7110 110° East 464 534 34,500 -1,714 Descending FlightAware ADS-B
Fri 19:20:47 41.5300 -76.6050 110° East 463 533 33,300 -1,600 Descending FlightAware ADS-B
Fri 19:21:22 41.5040 -76.5130 111° Southeast 459 528 32,500 -1,662 Descending FlightAware ADS-B
Fri 19:21:52 41.4820 -76.4320 110° East 459 528 31,500 -1,800 Descending FlightAware ADS-B
Fri 19:22:32 41.4540 -76.3320 110° East 459 528 30,400 -1,579 Descending FlightAware ADS-B
Fri 19:23:08 41.4240 -76.2250 110° East 454 522 29,500 -1,433 Descending FlightAware ADS-B
Fri 19:23:39 41.4030 -76.1480 110° East 450 518 28,800 -1,433 Descending FlightAware ADS-B
Fri 19:24:15 41.3750 -76.0510 111° Southeast 445 512 27,900 -1,437 Descending FlightAware ADS-B
Fri 19:24:50 41.3520 -75.9660 110° East 442 509 27,100 -1,378 Descending FlightAware ADS-B
Fri 19:25:29 41.3240 -75.8680 111° Southeast 437 503 26,200 -1,391 Descending FlightAware ADS-B
Fri 19:25:59 41.3030 -75.7960 111° Southeast 436 502 25,500 -1,343 Descending FlightAware ADS-B
Fri 19:26:36 41.2750 -75.6990 111° Southeast 431 496 24,700 -1,417 Descending FlightAware ADS-B
Fri 19:27:11 41.2480 -75.6130 113° Southeast 427 491 23,800 -1,167 Descending FlightAware ADS-B
Fri 19:27:48 41.2190 -75.5280 114° Southeast 417 480 23,300 -696 Descending FlightAware ADS-B
Fri 19:28:20 41.1940 -75.4520 114° Southeast 403 464 23,000 -269 Descending FlightAware ADS-B
Fri 19:28:55 41.1670 -75.3730 114° Southeast 404 465 23,000  Level FlightAware ADS-B
Fri 19:29:33 41.1390 -75.2890 114° Southeast 410 472 23,000  Level FlightAware ADS-B
Fri 19:30:07 41.1110 -75.2070 114° Southeast 410 472 23,000  Level FlightAware ADS-B
Fri 19:30:43 41.0840 -75.1270 114° Southeast 390 449 23,000  Level FlightAware ADS-B
Fri 19:31:15 41.0610 -75.0580 114° Southeast 373 429 23,000  Level FlightAware ADS-B
Fri 19:31:51 41.0350 -74.9840 115° Southeast 373 429 23,000  Level FlightAware ADS-B
Fri 19:32:19 41.0190 -74.9270 110° East 390 449 23,000  Level FlightAware ADS-B
Fri 19:32:35 41.0160 -74.8860 96° East 407 468 23,000  Level FlightAware ADS-B
Fri 19:32:47 41.0190 -74.8580 82° East 414 476 23,000  Level FlightAware ADS-B
Fri 19:33:03 41.0310 -74.8150 70° East 422 486 23,000  Level FlightAware ADS-B
Fri 19:33:33 41.0620 -74.7500 58° Northeast 425 489 23,000  Level FlightAware ADS-B
Fri 19:34:09 41.1010 -74.6720 56° Northeast 422 486 23,000 -600 Level FlightAware ADS-B
Fri 19:34:43 41.1370 -74.6010 56° Northeast 418 481 22,300 -833 Descending FlightAware ADS-B
Fri 19:35:21 41.1780 -74.5200 56° Northeast 416 479 22,000 -250 Descending FlightAware ADS-B
Fri 19:35:55 41.2140 -74.4500 56° Northeast 419 482 22,000  Level FlightAware ADS-B
Fri 19:36:30 41.2470 -74.3740 60° Northeast 414 476 22,000  Level FlightAware ADS-B
Fri 19:36:48 41.2540 -74.3320 77° East 405 466 22,000  Level FlightAware ADS-B
Fri 19:37:06 41.2530 -74.2840 92° East 393 452 22,000  Level FlightAware ADS-B
Fri 19:37:18 41.2470 -74.2590 108° East 380 437 22,000 -214 Level FlightAware ADS-B
Fri 19:37:34 41.2320 -74.2270 122° Southeast 363 418 21,900 -828 Descending FlightAware ADS-B
Fri 19:37:47 41.2156 -74.2037 133° Southeast 352 405 21,600 -923 Descending FlightAware ADS-B
Fri 19:38:00 41.2000 -74.1874 142° Southeast 342 394 21,500 -737 Descending FlightAware ADS-B
Fri 19:38:44 41.1420 -74.1580 159° South 315 362 20,900 -822 Descending FlightAware ADS-B
Fri 19:39:13 41.0979 -74.1531 175° South 310 357 20,500 -700 Descending FlightAware ADS-B
Fri 19:39:44 41.0519 -74.1490 176° South 314 361 20,200 -750 Descending FlightAware ADS-B
Fri 19:40:17 41.0045 -74.1442 176° South 309 356 19,700 -1,000 Descending FlightAware ADS-B
Fri 19:40:56 40.9520 -74.1370 174° South 313 360 19,000 -894 Descending FlightAware ADS-B
Fri 19:41:04 40.9390 -74.1300 158° South 328 377 19,000  Level FlightAware ADS-B
Fri 19:41:24 40.9161 -74.1018 137° Southeast 355 409 19,000  Level FlightAware ADS-B
Fri 19:41:35 40.9064 -74.0806 121° Southeast 364 419 19,000 -439 Level FlightAware ADS-B
Fri 19:42:05 40.8819 -74.0226 119° Southeast 357 411 18,700 -1,082 Descending FlightAware ADS-B
Fri 19:42:36 40.8580 -73.9670 120° Southeast 353 406 17,900 -1,452 Descending FlightAware ADS-B
Fri 19:43:07 40.8330 -73.9090 120° Southeast 347 399 17,200 -1,478 Descending FlightAware ADS-B
Fri 19:43:45 40.8020 -73.8380 120° Southeast 343 395 16,200 -1,556 Descending FlightAware ADS-B
Fri 19:44:01 40.7920 -73.8110 116° Southeast 347 399 15,800 -1,224 Descending FlightAware ADS-B
Fri 19:44:34 40.7790 -73.7440 104° East 341 392 15,200 -1,324 Descending FlightAware ADS-B
Fri 19:45:09 40.7670 -73.6730 103° East 336 387 14,300 -1,437 Descending FlightAware ADS-B
Fri 19:45:45 40.7610 -73.5990 96° East 331 381 13,500 -1,304 Descending FlightAware ADS-B
Fri 19:46:18 40.7570 -73.5320 94° East 324 373 12,800 -1,324 Descending FlightAware ADS-B
Fri 19:46:53 40.7530 -73.4630 94° East 315 362 12,000 -1,333 Descending FlightAware ADS-B
Fri 19:47:30 40.7460 -73.3970 98° East 306 352 11,200 -1,395 Descending FlightAware ADS-B
Fri 19:47:36 40.7410 -73.3850 119° Southeast 303 349 11,000 -1,579 Descending FlightAware ADS-B
Fri 19:47:49 40.7290 -73.3690 135° Southeast 297 342 10,700 -1,429 Descending FlightAware ADS-B
Fri 19:47:57 40.7190 -73.3620 152° Southeast 291 335 10,500 -1,500 Descending FlightAware ADS-B
Fri 19:48:05 40.7080 -73.3580 165° South 286 329 10,300 -1,135 Descending FlightAware ADS-B
Fri 19:48:34 40.6750 -73.3710 197° South 272 313 9,800 -1,200 Descending FlightAware ADS-B
Fri 19:48:55 40.6530 -73.3920 216° Southwest 269 310 9,300 -1,400 Descending FlightAware ADS-B
Fri 19:49:04 40.6450 -73.3990 214° Southwest 269 310 9,100 -1,600 Descending FlightAware ADS-B
Fri 19:49:25 40.6220 -73.4200 215° Southwest 269 310 8,500 -1,385 Descending FlightAware ADS-B
Fri 19:49:43 40.6060 -73.4350 215° Southwest 269 310 8,200 -1,263 Descending FlightAware ADS-B
Fri 19:50:03 40.5850 -73.4540 214° Southwest 267 307 7,700 -1,250 Descending FlightAware ADS-B
Fri 19:50:31 40.5540 -73.4780 210° Southwest 268 308 7,200 -766 Descending FlightAware ADS-B
Fri 19:50:50 40.5320 -73.4910 204° Southwest 273 314 7,100 -136 Descending FlightAware ADS-B
Fri 19:51:15 40.5020 -73.5080 203° Southwest 273 314 7,100 -133 Level FlightAware ADS-B
Fri 19:51:35 40.4790 -73.5210 203° Southwest 266 306 7,000 -750 Descending FlightAware ADS-B
Fri 19:51:55 40.4570 -73.5340 204° Southwest 266 306 6,600 -1,350 Descending FlightAware ADS-B
Fri 19:52:15 40.4360 -73.5460 204° Southwest 267 307 6,100 -1,350 Descending FlightAware ADS-B
Fri 19:52:35 40.4120 -73.5600 204° Southwest 266 306 5,700 -1,200 Descending FlightAware ADS-B
Fri 19:52:55 40.3900 -73.5740 206° Southwest 265 305 5,300 -1,250 Descending FlightAware ADS-B
Fri 19:52:59 40.3880 -73.5760 217° Southwest 265 305 5,200 -1,286 Descending FlightAware ADS-B
Fri 19:53:09 40.3790 -73.5880 225° Southwest 262 302 5,000 -1,263 Descending FlightAware ADS-B
Fri 19:53:18 40.3730 -73.6010 239° Southwest 259 298 4,800 -1,400 Descending FlightAware ADS-B
Fri 19:53:39 40.3620 -73.6320 245° Southwest 259 298 4,300 -1,347 Descending FlightAware ADS-B
Fri 19:54:07 40.3470 -73.6720 244° Southwest 258 297 3,700 -964 Descending FlightAware ADS-B
Fri 19:54:35 40.3330 -73.7080 243° Southwest 248 285 3,400 -625 Descending FlightAware ADS-B
Fri 19:54:55 40.3230 -73.7360 245° Southwest 239 275 3,200 -750 Descending FlightAware ADS-B
Fri 19:54:59 40.3220 -73.7420 258° West 233 268 3,100 -649 Descending FlightAware ADS-B
Fri 19:55:32 40.3300 -73.7830 284° West 209 241 2,800 -577 Descending FlightAware ADS-B
Fri 19:55:51 40.3370 -73.8050 293° West 203 234 2,600 -698 Descending FlightAware ADS-B
Fri 19:56:15 40.3460 -73.8330 293° West 199 229 2,300 -667 Descending FlightAware ADS-B
Fri 19:56:36 40.3530 -73.8550 293° West 198 228 2,100 -333 Descending FlightAware ADS-B
Fri 19:56:51 40.3600 -73.8710 300° West 197 227 2,100  Level FlightAware ADS-B
Fri 19:57:04 40.3700 -73.8800 326° Northwest 198 228 2,100  Level FlightAware ADS-B
Fri 19:57:23 40.3860 -73.8890 337° Northwest 191 220 2,100  Level FlightAware ADS-B
Fri 19:57:44 40.4020 -73.8960 342° North 172 198 2,100  Level FlightAware ADS-B
Fri 19:57:51 40.4080 -73.8980 346° North 167 192 2,100  Level FlightAware ADS-B
Fri 19:57:59 40.4140 -73.8990 353° North 163 188 2,100  Level FlightAware ADS-B
Fri 19:58:13 40.4240 -73.9000 356° North 169 194 2,100  Level FlightAware ADS-B
Fri 19:58:35 40.4410 -73.8990 North 166 191 2,100  Level FlightAware ADS-B
Fri 19:58:48 40.4510 -73.8980 North 162 186 2,100  Level FlightAware ADS-B
Fri 19:59:07 40.4650 -73.8920 18° North 159 183 2,100  Level FlightAware ADS-B
Fri 19:59:24 40.4760 -73.8860 23° Northeast 161 185 2,100  Level FlightAware ADS-B
Fri 19:59:45 40.4910 -73.8760 27° Northeast 163 188 2,100 -92 Level FlightAware ADS-B
Fri 20:00:29 40.5167 -73.8500 27° Northeast 164 189 2,000 -288 Descending New York TRACON
Fri 20:01:29 40.5500 -73.8333 21° North 168 193 1,600 -550 Descending New York TRACON
Fri 20:02:29 40.5833 -73.8000 37° Northeast 131 151 900 -700 Descending New York TRACON
Fri 20:03:29 40.6167 -73.7667 37° Northeast 127 146 200 -700 Descending New York TRACON

Login

Don't have an account? Register now (free) for customized features, flight alerts, and more!